Time;durP1;ratioP1;P1;durP2;ratioP2;P2;SDS_P1;SDS_P2;PMS_P1;PMS_P2;Temp;Humidity;BMP_temperature;BMP_pressure;BME280_temperature;BME280_humidity;BME280_pressure;Samples;Min_cycle;Max_cycle;Signal;HPM_P1;HPM_P2
2023/05/27 00:01:26;;;;;;;15.80;5.10;;;;;;;8.48;100.00;102249.00;4943042;29;20039;-84
2023/05/27 00:03:52;;;;;;;23.73;5.65;;;;;;;8.45;100.00;102246.31;4941183;29;20055;-80
2023/05/27 00:06:19;;;;;;;12.80;5.43;;;;;;;8.41;100.00;102240.13;4923738;29;20031;-90
2023/05/27 00:08:46;;;;;;;12.32;5.65;;;;;;;8.42;100.00;102247.09;4929906;29;20048;-78
2023/05/27 00:11:12;;;;;;;18.95;5.22;;;;;;;8.41;100.00;102245.34;4914165;29;20056;-82
2023/05/27 00:13:39;;;;;;;13.40;5.00;;;;;;;8.36;100.00;102235.63;4928033;29;20036;-80
2023/05/27 00:16:06;;;;;;;19.52;4.78;;;;;;;8.33;100.00;102244.25;4927367;29;20509;-91
2023/05/27 00:18:32;;;;;;;14.07;4.80;;;;;;;8.31;100.00;102245.94;4909994;29;20458;-88
2023/05/27 00:20:59;;;;;;;11.95;4.85;;;;;;;8.26;100.00;102240.59;4932854;29;20048;-81
2023/05/27 00:23:26;;;;;;;19.48;5.15;;;;;;;8.22;100.00;102243.09;4929702;29;20119;-80
2023/05/27 00:25:52;;;;;;;17.50;5.10;;;;;;;8.21;100.00;102244.81;4936366;29;20044;-84
2023/05/27 00:28:19;;;;;;;13.18;5.13;;;;;;;8.20;100.00;102248.28;4918269;29;20040;-79
2023/05/27 00:30:45;;;;;;;22.92;5.97;;;;;;;8.18;100.00;102247.34;4937486;29;20042;-79
2023/05/27 00:33:12;;;;;;;16.40;4.60;;;;;;;8.21;100.00;102247.44;4933513;29;20404;-90
2023/05/27 00:35:38;;;;;;;17.10;5.43;;;;;;;8.18;100.00;102246.47;4941734;29;20474;-79
2023/05/27 00:38:07;;;;;;;18.90;4.78;;;;;;;8.17;100.00;102242.94;4941021;29;20106;-78
2023/05/27 00:40:36;;;;;;;17.85;4.85;;;;;;;8.16;100.00;102243.81;4906945;29;20407;-82
2023/05/27 00:43:02;;;;;;;13.50;5.65;;;;;;;8.14;100.00;102244.63;4940794;29;20047;-79
2023/05/27 00:45:30;;;;;;;18.23;5.22;;;;;;;8.08;100.00;102247.94;4927811;29;20035;-78
2023/05/27 00:47:57;;;;;;;13.18;4.85;;;;;;;8.05;100.00;102240.03;4940480;29;20086;-80
2023/05/27 00:50:25;;;;;;;10.88;5.40;;;;;;;8.00;100.00;102233.81;4940006;29;20059;-80
2023/05/27 00:52:55;;;;;;;15.77;4.88;;;;;;;7.99;100.00;102229.44;4914046;29;20475;-86
2023/05/27 00:55:22;;;;;;;19.15;6.55;;;;;;;7.95;100.00;102236.28;4940411;29;20059;-79
2023/05/27 00:57:49;;;;;;;26.55;5.22;;;;;;;7.93;100.00;102236.25;4934730;29;20087;-79
2023/05/27 01:00:15;;;;;;;8.60;4.07;;;;;;;7.90;100.00;102228.34;4918243;29;20047;-81
2023/05/27 01:02:43;;;;;;;10.77;4.45;;;;;;;7.87;100.00;102228.25;4940208;29;20115;-79
2023/05/27 01:05:12;;;;;;;11.68;4.78;;;;;;;7.85;100.00;102221.22;4933333;29;20070;-80
2023/05/27 01:07:58;;;;;;;15.65;5.70;;;;;;;7.83;100.00;102233.34;4931613;29;20055;-81
2023/05/27 01:10:33;;;;;;;16.13;4.82;;;;;;;7.82;100.00;102227.22;4934760;29;20052;-79
2023/05/27 01:13:14;;;;;;;18.38;6.38;;;;;;;7.85;100.00;102235.16;4932647;29;20398;-80
2023/05/27 01:15:41;;;;;;;16.88;4.78;;;;;;;7.83;100.00;102235.94;4915552;29;20391;-84
2023/05/27 01:18:10;;;;;;;14.68;4.90;;;;;;;7.78;100.00;102235.81;4910159;29;20072;-85
2023/05/27 01:20:40;;;;;;;14.02;4.85;;;;;;;7.75;100.00;102233.13;4942316;29;20051;-80
2023/05/27 01:23:08;;;;;;;19.48;5.95;;;;;;;7.69;100.00;102245.97;4931903;28;20814;-82
2023/05/27 01:25:35;;;;;;;12.07;5.18;;;;;;;7.63;100.00;102244.09;4933934;29;20051;-81
2023/05/27 01:28:01;;;;;;;17.10;5.45;;;;;;;7.59;100.00;102235.28;4931781;29;20048;-80
2023/05/27 01:30:28;;;;;;;19.67;4.78;;;;;;;7.58;100.00;102232.66;4933853;29;20181;-85
2023/05/27 01:33:18;;;;;;;15.00;5.82;;;;;;;7.57;100.00;102236.09;4929030;29;20046;-79
2023/05/27 01:35:56;;;;;;;11.13;4.53;;;;;;;7.49;100.00;102224.56;4931957;29;20043;-79
2023/05/27 01:38:25;;;;;;;15.85;4.82;;;;;;;7.45;100.00;102227.06;4914150;29;20055;-81
2023/05/27 01:40:54;;;;;;;12.70;4.40;;;;;;;7.44;100.00;102224.41;4931409;29;20103;-82
2023/05/27 01:43:21;;;;;;;21.98;5.35;;;;;;;7.43;100.00;102222.66;4927238;29;20468;-79
2023/05/27 01:45:48;;;;;;;18.23;3.90;;;;;;;7.39;100.00;102221.69;4929288;29;20052;-83
2023/05/27 01:48:15;;;;;;;19.90;5.68;;;;;;;7.37;100.00;102218.16;4930672;29;20487;-81
2023/05/27 01:50:41;;;;;;;19.65;4.97;;;;;;;7.35;100.00;102217.22;4928979;29;20044;-79
2023/05/27 01:53:07;;;;;;;9.73;4.55;;;;;;;7.33;100.00;102218.03;4929228;29;20039;-79
2023/05/27 01:55:34;;;;;;;13.65;5.07;;;;;;;7.29;100.00;102212.72;4929318;29;20043;-80
2023/05/27 01:58:01;;;;;;;14.32;5.57;;;;;;;7.33;100.00;102218.03;4921865;29;20040;-81
2023/05/27 02:00:27;;;;;;;14.50;5.18;;;;;;;7.29;100.00;102211.84;4936604;29;20040;-79
2023/05/27 02:02:54;;;;;;;14.05;4.80;;;;;;;7.25;100.00;102210.84;4937961;29;20375;-80
2023/05/27 02:05:21;;;;;;;13.77;4.88;;;;;;;7.26;100.00;102211.72;4930181;29;20044;-79
2023/05/27 02:07:48;;;;;;;13.50;5.65;;;;;;;7.21;100.00;102214.22;4932813;29;20055;-92
2023/05/27 02:10:14;;;;;;;8.27;4.95;;;;;;;7.17;100.00;102206.25;4923477;29;20062;-79
2023/05/27 02:12:41;;;;;;;14.35;5.32;;;;;;;7.14;100.00;102207.03;4920238;29;20553;-81
2023/05/27 02:15:08;;;;;;;12.48;5.53;;;;;;;7.15;100.00;102205.34;4935205;29;20434;-79
2023/05/27 02:17:35;;;;;;;12.35;5.38;;;;;;;7.11;100.00;102202.63;4935172;29;20138;-81
2023/05/27 02:20:03;;;;;;;13.93;5.97;;;;;;;7.09;100.00;102198.19;4929113;29;20060;-78
2023/05/27 02:22:29;;;;;;;15.27;6.50;;;;;;;7.07;100.00;102195.56;4920234;29;20114;-79
2023/05/27 02:24:56;;;;;;;18.08;5.78;;;;;;;7.09;100.00;102216.44;4931422;29;20051;-81
2023/05/27 02:27:22;;;;;;;11.20;5.63;;;;;;;7.07;100.00;102210.31;4929143;29;20487;-82
2023/05/27 02:29:49;;;;;;;15.43;6.32;;;;;;;7.02;100.00;102191.94;4928777;29;20051;-82
2023/05/27 02:32:16;;;;;;;16.20;6.70;;;;;;;7.01;100.00;102210.13;4933202;29;20081;-80
2023/05/27 02:34:43;;;;;;;13.73;5.63;;;;;;;6.98;100.00;102203.09;4930756;29;20043;-80
2023/05/27 02:37:09;;;;;;;21.13;6.43;;;;;;;6.96;100.00;102207.34;4934318;29;20455;-79
2023/05/27 02:39:36;;;;;;;14.02;5.07;;;;;;;6.97;100.00;102209.13;4938915;29;20066;-79
2023/05/27 02:42:02;;;;;;;8.88;5.15;;;;;;;6.93;100.00;102207.28;4920081;29;20402;-80
2023/05/27 02:44:29;;;;;;;19.38;6.10;;;;;;;6.92;100.00;102214.22;4911390;29;20394;-83
2023/05/27 02:46:55;;;;;;;14.50;6.15;;;;;;;6.90;100.00;102210.66;4938938;29;20475;-81
2023/05/27 02:49:22;;;;;;;11.98;5.43;;;;;;;6.88;100.00;102206.25;4941670;29;20045;-80
2023/05/27 02:51:48;;;;;;;24.10;5.82;;;;;;;6.87;100.00;102213.19;4919252;29;20498;-88
2023/05/27 02:54:15;;;;;;;15.68;5.50;;;;;;;6.83;100.00;102213.94;4932845;29;20063;-80
2023/05/27 02:56:41;;;;;;;13.80;5.90;;;;;;;6.79;100.00;102215.53;4931646;29;20439;-85
2023/05/27 02:59:08;;;;;;;16.88;4.97;;;;;;;6.81;100.00;102223.38;4936466;29;20037;-81
2023/05/27 03:01:34;;;;;;;15.85;6.88;;;;;;;6.79;100.00;102225.03;4933223;29;20533;-83
2023/05/27 03:04:00;;;;;;;16.38;6.88;;;;;;;6.73;100.00;102228.34;4940717;29;20049;-80
2023/05/27 03:06:27;;;;;;;17.45;5.53;;;;;;;6.73;100.00;102222.28;4941199;29;20047;-79
2023/05/27 03:08:53;;;;;;;14.40;6.20;;;;;;;6.75;100.00;102228.38;4928718;29;20592;-79
2023/05/27 03:11:21;;;;;;;19.77;5.13;;;;;;;6.76;100.00;102232.78;4936599;29;20043;-81
2023/05/27 03:13:47;;;;;;;18.67;6.28;;;;;;;6.75;100.00;102228.38;4929474;29;20050;-79
2023/05/27 03:16:13;;;;;;;11.45;4.93;;;;;;;6.76;100.00;102231.03;4936254;29;20135;-82
2023/05/27 03:18:40;;;;;;;15.40;5.05;;;;;;;6.76;100.00;102233.63;4941801;29;20518;-81
2023/05/27 03:21:07;;;;;;;14.13;5.68;;;;;;;6.79;100.00;102220.75;4944282;29;20467;-79
2023/05/27 03:23:34;;;;;;;13.65;5.07;;;;;;;6.82;100.00;102219.97;4943689;29;20108;-82
2023/05/27 03:26:01;;;;;;;17.75;5.28;;;;;;;6.79;100.00;102223.34;4932159;29;20040;-80
2023/05/27 03:28:27;;;;;;;13.10;5.30;;;;;;;6.75;100.00;102216.28;4925467;29;20090;-79
2023/05/27 03:30:55;;;;;;;15.90;5.07;;;;;;;6.72;100.00;102210.97;4919209;29;20051;-81
2023/05/27 03:33:24;;;;;;;16.05;4.95;;;;;;;6.72;100.00;102210.09;4939867;29;20046;-79
2023/05/27 03:35:51;;;;;;;15.20;5.07;;;;;;;6.72;100.00;102208.34;4918760;29;20395;-79
2023/05/27 03:38:19;;;;;;;9.98;4.78;;;;;;;6.74;100.00;102200.59;4930759;29;20066;-79
2023/05/27 03:40:46;;;;;;;12.13;4.70;;;;;;;6.73;100.00;102204.06;4934026;29;20059;-84
2023/05/27 03:43:12;;;;;;;14.80;4.80;;;;;;;6.71;100.00;102211.78;4932422;29;20126;-83
2023/05/27 03:45:39;;;;;;;15.73;5.25;;;;;;;6.73;100.00;102215.34;4934022;29;20510;-80
2023/05/27 03:48:05;;;;;;;19.13;6.40;;;;;;;6.75;100.00;102216.28;4931904;29;20060;-88
2023/05/27 03:50:34;;;;;;;11.60;4.35;;;;;;;6.77;100.00;102211.13;4934218;29;20071;-80
2023/05/27 03:53:00;;;;;;;18.10;5.28;;;;;;;6.81;100.00;102209.50;4931053;29;20039;-80
2023/05/27 03:55:27;;;;;;;8.63;4.35;;;;;;;6.83;100.00;102216.53;4919630;29;20434;-79
2023/05/27 03:57:54;;;;;;;16.10;5.03;;;;;;;6.84;100.00;102210.47;4930287;29;20587;-79
2023/05/27 04:00:21;;;;;;;21.83;5.57;;;;;;;6.85;100.00;102212.22;4918738;29;20074;-83
2023/05/27 04:02:47;;;;;;;10.82;5.57;;;;;;;6.91;100.00;102212.44;4937785;29;20051;-79
2023/05/27 04:05:16;;;;;;;14.07;4.38;;;;;;;6.97;100.00;102216.06;4915337;29;20048;-83
2023/05/27 04:07:43;;;;;;;13.30;6.07;;;;;;;6.96;100.00;102212.56;4934003;29;20047;-88
2023/05/27 04:10:09;;;;;;;11.15;4.57;;;;;;;7.02;100.00;102211.88;4933713;29;20044;-81
2023/05/27 04:12:36;;;;;;;13.13;5.63;;;;;;;7.05;100.00;102204.16;4931358;29;20618;-79
2023/05/27 04:15:03;;;;;;;16.25;5.55;;;;;;;7.08;100.00;102193.84;4933446;29;20494;-80
2023/05/27 04:17:29;;;;;;;18.63;5.35;;;;;;;7.11;100.00;102194.81;4935753;29;20054;-82
2023/05/27 04:19:56;;;;;;;15.52;5.55;;;;;;;7.16;100.00;102199.25;4928230;29;20043;-79
2023/05/27 04:22:22;;;;;;;12.25;5.55;;;;;;;7.18;100.00;102188.06;4936087;29;20046;-79
2023/05/27 04:24:49;;;;;;;10.25;5.25;;;;;;;7.23;100.00;102190.81;4925356;29;20044;-82
2023/05/27 04:27:19;;;;;;;21.77;6.32;;;;;;;7.27;100.00;102184.84;4940988;29;20091;-78
2023/05/27 04:29:47;;;;;;;16.33;5.80;;;;;;;7.32;100.00;102180.66;4917414;29;20067;-79
2023/05/27 04:32:13;;;;;;;23.02;7.60;;;;;;;7.36;100.00;102176.44;4939060;29;20102;-81
2023/05/27 04:34:41;;;;;;;15.30;6.00;;;;;;;7.44;100.00;102174.91;4932388;29;20500;-80
2023/05/27 04:37:10;;;;;;;11.18;5.22;;;;;;;7.47;100.00;102164.59;4922300;29;20085;-79
2023/05/27 04:39:45;;;;;;;18.38;6.28;;;;;;;7.52;100.00;102172.53;4919298;29;20056;-79
2023/05/27 04:42:15;;;;;;;13.23;5.47;;;;;;;7.57;100.00;102178.75;4934934;29;20067;-82
2023/05/27 04:44:42;;;;;;;10.48;4.78;;;;;;;7.62;100.00;102177.16;4937163;29;20058;-78
2023/05/27 04:47:09;;;;;;;16.27;5.28;;;;;;;7.68;100.00;102172.13;4933570;29;20048;-86
2023/05/27 04:49:35;;;;;;;18.33;5.53;;;;;;;7.74;100.00;102177.50;4918985;29;20498;-83
2023/05/27 04:52:02;;;;;;;14.00;5.60;;;;;;;7.82;100.00;102180.31;4930351;29;20050;-80
2023/05/27 04:54:29;;;;;;;16.27;5.13;;;;;;;7.89;100.00;102184.84;4926148;29;20055;-82
2023/05/27 04:56:55;;;;;;;14.20;5.25;;;;;;;7.98;100.00;102181.63;4931545;29;20082;-79
2023/05/27 04:59:22;;;;;;;18.23;5.75;;;;;;;8.05;100.00;102191.34;4931932;29;20479;-79
2023/05/27 05:02:09;;;;;;;12.70;6.32;;;;;;;8.11;100.00;102196.72;4938138;29;20475;-82
2023/05/27 05:04:38;;;;;;;14.43;5.18;;;;;;;8.20;100.00;102203.03;4924483;29;20058;-85
2023/05/27 05:07:04;;;;;;;13.57;4.55;;;;;;;8.23;100.00;102200.50;4922346;29;20047;-79
2023/05/27 05:09:31;;;;;;;15.18;5.93;;;;;;;8.27;100.00;102204.97;4926144;29;20130;-80
2023/05/27 05:11:57;;;;;;;10.63;5.10;;;;;;;8.32;100.00;102198.13;4917067;29;20052;-79
2023/05/27 05:14:25;;;;;;;14.85;5.55;;;;;;;8.40;100.00;102196.59;4936065;29;20734;-79
2023/05/27 05:16:51;;;;;;;13.57;5.30;;;;;;;8.44;100.00;102210.59;4941647;29;20078;-82
2023/05/27 05:19:18;;;;;;;11.25;4.70;;;;;;;8.45;100.00;102196.72;4933923;29;20054;-79
2023/05/27 05:21:44;;;;;;;20.23;5.88;;;;;;;8.49;100.00;102203.81;4929887;29;20047;-79
2023/05/27 05:24:12;;;;;;;15.25;5.45;;;;;;;8.48;100.00;102199.41;4912920;29;20055;-81
2023/05/27 05:26:38;;;;;;;15.57;5.03;;;;;;;8.49;100.00;102210.75;4929942;29;20514;-82
2023/05/27 05:29:05;;;;;;;18.23;6.53;;;;;;;8.50;100.00;102202.97;4923782;29;20051;-90
2023/05/27 05:31:32;;;;;;;15.27;6.65;;;;;;;8.54;100.00;102203.91;4930592;29;20042;-80
2023/05/27 05:33:58;;;;;;;17.02;7.50;;;;;;;8.56;100.00;102208.31;4923223;29;20126;-83
2023/05/27 05:36:25;;;;;;;14.27;6.85;;;;;;;8.64;100.00;102208.50;4941278;29;20056;-80
2023/05/27 05:38:51;;;;;;;11.48;5.18;;;;;;;8.69;100.00;102209.50;4930893;29;20510;-80
2023/05/27 05:41:18;;;;;;;10.52;4.78;;;;;;;8.72;100.00;102208.69;4931312;29;20514;-84
2023/05/27 05:43:45;;;;;;;22.17;6.38;;;;;;;8.80;100.00;102206.25;4929009;29;20486;-80
2023/05/27 05:46:11;;;;;;;12.80;5.72;;;;;;;8.89;100.00;102203.84;4921070;29;20114;-81
2023/05/27 05:48:38;;;;;;;13.00;5.55;;;;;;;9.00;100.00;102201.50;4918411;29;20051;-79
2023/05/27 05:51:04;;;;;;;16.35;5.65;;;;;;;9.06;100.00;102193.78;4941825;29;20048;-79
2023/05/27 05:53:31;;;;;;;15.60;6.78;;;;;;;9.13;100.00;102194.84;4911595;29;20147;-83
2023/05/27 05:55:59;;;;;;;14.85;6.60;;;;;;;9.17;100.00;102194.91;4931481;29;20442;-79
2023/05/27 05:58:25;;;;;;;15.55;6.38;;;;;;;9.23;100.00;102196.75;4914485;29;20563;-84
2023/05/27 06:00:54;;;;;;;20.52;6.28;;;;;;;9.30;100.00;102193.44;4931991;29;20044;-81
2023/05/27 06:03:21;;;;;;;13.30;6.22;;;;;;;9.41;100.00;102202.41;4932873;29;20051;-86
2023/05/27 06:05:47;;;;;;;17.92;6.45;;;;;;;9.51;100.00;102203.47;4928488;29;20044;-80
2023/05/27 06:08:14;;;;;;;16.83;6.03;;;;;;;9.60;100.00;102198.41;4915956;29;20059;-79
2023/05/27 06:10:41;;;;;;;16.23;5.70;;;;;;;9.74;100.00;102197.81;4939636;29;20126;-79
2023/05/27 06:13:10;;;;;;;17.95;6.15;;;;;;;9.89;100.00;102194.59;4937826;29;20071;-86
2023/05/27 06:15:37;;;;;;;18.85;6.18;;;;;;;10.01;100.00;102191.31;4922248;29;20050;-79
2023/05/27 06:18:05;;;;;;;21.55;6.15;;;;;;;10.14;100.00;102193.28;4937262;29;20039;-79
2023/05/27 06:20:39;;;;;;;19.55;5.57;;;;;;;10.23;100.00;102189.97;4941035;29;20799;-91
2023/05/27 06:23:06;;;;;;;15.38;5.15;;;;;;;10.31;100.00;102182.25;4943599;29;20071;-86
2023/05/27 06:25:33;;;;;;;14.43;5.25;;;;;;;10.34;100.00;102196.28;4942340;29;20040;-80
2023/05/27 06:28:00;;;;;;;17.83;6.25;;;;;;;10.43;100.00;102187.75;4932603;29;20036;-82
2023/05/27 06:30:27;;;;;;;17.23;5.88;;;;;;;10.53;100.00;102197.50;4938169;29;20126;-81
2023/05/27 06:32:54;;;;;;;12.40;4.95;;;;;;;10.65;100.00;102185.44;4936722;29;20051;-85
2023/05/27 06:35:21;;;;;;;23.38;7.05;;;;;;;10.75;99.16;102188.25;4933275;29;20078;-81
2023/05/27 06:37:47;;;;;;;11.32;4.72;;;;;;;10.77;99.04;102196.13;4936014;29;20044;-82
2023/05/27 06:40:14;;;;;;;12.82;5.80;;;;;;;10.85;98.70;102191.88;4942373;29;20039;-83
2023/05/27 06:42:40;;;;;;;16.55;6.28;;;;;;;10.88;97.59;102189.28;4935388;29;20203;-81
2023/05/27 06:45:08;;;;;;;12.38;5.45;;;;;;;10.99;97.30;102188.56;4922596;29;20051;-81
2023/05/27 06:47:34;;;;;;;17.80;6.22;;;;;;;11.11;96.13;102186.13;4934947;29;20043;-78
2023/05/27 06:50:00;;;;;;;15.23;5.72;;;;;;;11.17;96.12;102188.81;4931877;29;20111;-85
2023/05/27 06:52:27;;;;;;;19.35;6.13;;;;;;;11.23;95.86;102182.78;4946757;29;20047;-80
2023/05/27 06:54:55;;;;;;;17.45;5.90;;;;;;;11.31;94.77;102185.50;4929544;29;20055;-82
2023/05/27 06:57:23;;;;;;;18.35;6.40;;;;;;;11.37;93.82;102180.34;4911689;29;20150;-79
2023/05/27 06:59:50;;;;;;;14.75;5.45;;;;;;;11.38;92.74;102187.31;4936600;29;20122;-80
2023/05/27 07:02:16;;;;;;;14.02;5.53;;;;;;;11.45;93.07;102185.69;4939030;29;20063;-79
2023/05/27 07:04:43;;;;;;;18.85;5.47;;;;;;;11.57;93.26;102186.66;4933451;29;20036;-80
2023/05/27 07:07:09;;;;;;;11.52;6.53;;;;;;;11.59;90.94;102186.72;4929802;29;20043;-80
2023/05/27 07:09:39;;;;;;;19.60;5.35;;;;;;;11.71;91.90;102183.34;4933727;29;20723;-84
2023/05/27 07:12:07;;;;;;;16.35;8.93;;;;;;;11.95;91.21;102184.47;4936233;29;20043;-89
2023/05/27 07:14:34;;;;;;;17.50;6.78;;;;;;;12.25;89.08;102176.00;4929238;29;20040;-80
2023/05/27 07:17:00;;;;;;;15.77;7.50;;;;;;;12.71;87.56;102178.09;4939967;29;20130;-90
2023/05/27 07:19:30;;;;;;;14.65;5.93;;;;;;;13.29;83.93;102174.91;4937181;29;20763;-82
2023/05/27 07:21:57;;;;;;;11.45;4.85;;;;;;;13.83;81.63;102171.59;4934861;29;20127;-81
2023/05/27 07:24:23;;;;;;;11.98;4.82;;;;;;;14.31;80.17;102174.28;4920732;29;20411;-80
2023/05/27 07:26:53;;;;;;;13.75;5.13;;;;;;;14.79;78.55;102167.22;4940460;29;20036;-79
2023/05/27 07:29:20;;;;;;;10.65;5.30;;;;;;;15.33;76.21;102167.06;4935550;29;20066;-81
2023/05/27 07:31:48;;;;;;;11.55;4.53;;;;;;;15.69;73.59;102166.88;4920993;29;20515;-82
2023/05/27 07:34:14;;;;;;;16.10;4.88;;;;;;;15.75;72.47;102158.03;4925584;29;20043;-81
2023/05/27 07:36:42;;;;;;;15.52;4.63;;;;;;;16.15;72.09;102152.47;4919237;29;20134;-82
2023/05/27 07:39:08;;;;;;;10.82;4.53;;;;;;;16.65;69.47;102150.28;4924426;29;20092;-80
2023/05/27 07:41:35;;;;;;;11.10;4.07;;;;;;;17.23;67.26;102147.88;4945884;29;20040;-81
2023/05/27 07:44:03;;;;;;;12.23;4.97;;;;;;;17.50;64.18;102139.56;4942038;29;20054;-81
2023/05/27 07:46:30;;;;;;;13.60;4.38;;;;;;;17.61;63.84;102144.72;4941688;29;20047;-81
2023/05/27 07:48:57;;;;;;;10.23;4.75;;;;;;;18.04;61.74;102150.28;4936516;29;20055;-81
2023/05/27 07:51:23;;;;;;;15.45;4.38;;;;;;;18.43;60.85;102148.69;4936480;29;20123;-81
2023/05/27 07:53:55;;;;;;;15.90;4.35;;;;;;;18.45;57.69;102151.34;4936825;29;20099;-82
2023/05/27 07:56:23;;;;;;;8.85;4.10;;;;;;;18.38;57.52;102147.03;4942668;29;20043;-82
2023/05/27 07:58:51;;;;;;;11.27;4.00;;;;;;;19.05;55.25;102136.09;4944159;29;20035;-81
2023/05/27 08:01:20;;;;;;;8.68;4.13;;;;;;;19.51;54.43;102127.09;4930186;29;20059;-82
2023/05/27 08:03:47;;;;;;;8.85;2.95;;;;;;;20.11;52.91;102131.00;4935687;29;20043;-82
2023/05/27 08:06:14;;;;;;;13.55;3.70;;;;;;;20.62;50.49;102123.47;4934596;29;20055;-81
2023/05/27 08:08:40;;;;;;;10.95;3.78;;;;;;;20.91;49.07;102122.69;4939445;29;20039;-81
2023/05/27 08:11:10;;;;;;;12.95;3.83;;;;;;;21.22;47.04;102118.22;4945952;29;20695;-81
2023/05/27 08:13:39;;;;;;;9.95;3.08;;;;;;;21.57;44.55;102106.50;4920314;29;20500;-83
2023/05/27 08:16:06;;;;;;;13.07;4.15;;;;;;;21.85;45.29;102100.28;4944563;29;20051;-92
2023/05/27 08:18:39;;;;;;;11.23;4.13;;;;;;;21.91;42.56;102107.19;4933335;29;20043;-81
2023/05/27 08:21:08;;;;;;;14.38;3.28;;;;;;;21.74;42.71;102092.63;4920168;29;20355;-85
2023/05/27 08:23:35;;;;;;;7.88;3.08;;;;;;;21.85;42.39;102102.94;4941409;29;20106;-82
2023/05/27 08:26:03;;;;;;;8.38;3.00;;;;;;;21.92;42.38;102093.81;4934587;29;20035;-81
2023/05/27 08:28:34;;;;;;;9.02;2.72;;;;;;;22.36;40.23;102077.22;4928099;29;20553;-80
2023/05/27 08:31:02;;;;;;;11.82;3.63;;;;;;;21.91;40.40;102091.19;4940212;29;20062;-83
2023/05/27 08:33:34;;;;;;;11.68;4.65;;;;;;;21.96;40.51;102102.56;4922745;29;20458;-81
2023/05/27 08:36:00;;;;;;;10.32;3.55;;;;;;;22.28;40.22;102081.91;4936585;29;20047;-81
2023/05/27 08:38:27;;;;;;;7.85;3.10;;;;;;;22.65;40.50;102085.09;4919252;29;20380;-84
2023/05/27 08:40:54;;;;;;;7.38;3.45;;;;;;;23.05;39.62;102084.44;4942117;28;20130;-81
2023/05/27 08:43:25;;;;;;;11.65;3.08;;;;;;;23.42;36.75;102071.47;4952053;29;20126;-81
2023/05/27 08:45:54;;;;;;;10.00;3.10;;;;;;;23.21;37.49;102087.41;4937200;29;20043;-83
2023/05/27 08:48:21;;;;;;;4.65;2.67;;;;;;;23.22;38.08;102081.16;4925299;29;20067;-83
2023/05/27 08:50:48;;;;;;;5.20;2.40;;;;;;;23.85;36.58;102075.00;4934456;29;20044;-80
2023/05/27 08:53:20;;;;;;;13.52;3.15;;;;;;;23.69;36.49;102080.16;4918192;29;20399;-80
2023/05/27 08:55:54;;;;;;;10.47;3.90;;;;;;;24.26;35.18;102075.06;4938670;29;20098;-89
2023/05/27 08:58:21;;;;;;;8.27;2.83;;;;;;;24.14;34.79;102067.56;4940985;29;20292;-80
2023/05/27 09:00:48;;;;;;;9.15;3.70;;;;;;;24.12;35.34;102074.81;4947869;29;20103;-83
2023/05/27 09:03:14;;;;;;;8.05;3.70;;;;;;;24.27;35.63;102068.78;4935832;29;20047;-81
2023/05/27 09:05:41;;;;;;;13.10;3.53;;;;;;;24.87;34.53;102067.88;4923420;29;20043;-81
2023/05/27 09:08:09;;;;;;;8.57;2.70;;;;;;;25.57;33.61;102068.13;4931394;29;20054;-81
2023/05/27 09:10:40;;;;;;;8.73;3.97;;;;;;;26.51;32.65;102067.78;4932485;29;20106;-81
2023/05/27 09:13:07;;;;;;;5.00;3.03;;;;;;;26.94;31.28;102061.91;4940325;29;20573;-82
2023/05/27 09:15:35;;;;;;;4.45;2.80;;;;;;;26.51;30.20;102066.91;4940102;29;20408;-81
2023/05/27 09:18:03;;;;;;;7.80;3.22;;;;;;;25.96;31.36;102063.50;4917830;29;20050;-82
2023/05/27 09:20:30;;;;;;;7.35;2.90;;;;;;;25.91;32.02;102065.53;4918712;29;20043;-82
2023/05/27 09:23:01;;;;;;;9.55;3.65;;;;;;;25.90;31.36;102062.00;4934708;29;20505;-82
2023/05/27 09:25:28;;;;;;;9.15;3.35;;;;;;;25.88;31.94;102061.19;4930563;29;20047;-82
2023/05/27 09:27:56;;;;;;;7.88;2.95;;;;;;;26.27;32.19;102055.66;4937125;29;20051;-81
2023/05/27 09:30:26;;;;;;;9.85;3.13;;;;;;;25.81;31.84;102062.44;4949410;29;20405;-81
2023/05/27 09:33:03;;;;;;;7.63;3.03;;;;;;;25.43;32.18;102060.78;4941351;29;20050;-83
2023/05/27 09:35:29;;;;;;;8.27;3.35;;;;;;;26.49;31.49;102055.38;4936633;29;20035;-81
2023/05/27 09:38:06;;;;;;;7.82;3.20;;;;;;;27.82;29.29;102039.84;4925150;29;20099;-80
2023/05/27 09:40:33;;;;;;;6.78;2.88;;;;;;;28.70;27.90;102043.41;4928587;29;20043;-82
2023/05/27 09:42:59;;;;;;;8.27;3.70;;;;;;;28.83;27.49;102048.88;4938729;29;20535;-83
2023/05/27 09:45:29;;;;;;;5.43;2.67;;;;;;;27.51;27.69;102045.22;4945892;28;20071;-87
2023/05/27 09:47:55;;;;;;;7.25;3.35;;;;;;;27.42;28.30;102043.09;4934911;29;20529;-81
2023/05/27 09:50:23;;;;;;;8.38;3.35;;;;;;;27.21;28.83;102037.97;4936709;29;20048;-82
2023/05/27 09:52:50;;;;;;;6.30;3.40;;;;;;;27.73;28.63;102043.97;4935635;29;20331;-80
2023/05/27 09:55:17;;;;;;;5.70;3.05;;;;;;;28.54;27.60;102032.72;4931867;29;20046;-81
2023/05/27 09:57:45;;;;;;;5.75;3.28;;;;;;;28.71;27.92;102030.81;4935435;29;20039;-85
2023/05/27 10:00:15;;;;;;;8.05;3.10;;;;;;;28.43;27.60;102028.97;4938577;29;20509;-80
2023/05/27 10:02:46;;;;;;;6.85;3.05;;;;;;;28.97;27.51;102037.22;4933598;29;20046;-81
2023/05/27 10:05:15;;;;;;;6.43;3.40;;;;;;;28.60;27.92;102017.13;4943153;29;20074;-85
2023/05/27 10:07:44;;;;;;;8.07;3.35;;;;;;;29.46;27.26;102029.56;4929943;29;20381;-80
2023/05/27 10:10:17;;;;;;;6.22;3.00;;;;;;;29.65;25.88;102024.63;4935134;29;20127;-82
2023/05/27 10:12:48;;;;;;;10.60;4.47;;;;;;;29.82;26.24;102026.16;4927933;29;20057;-80
2023/05/27 10:15:33;;;;;;;6.45;3.20;;;;;;;30.28;25.02;102019.38;4918820;29;20083;-84
2023/05/27 10:18:09;;;;;;;9.95;4.10;;;;;;;29.90;26.08;102019.41;4938765;29;20071;-83
2023/05/27 10:20:42;;;;;;;7.40;3.50;;;;;;;30.51;25.99;102004.25;4938931;29;20055;-89
2023/05/27 10:23:26;;;;;;;7.20;3.72;;;;;;;30.05;25.26;102003.97;4942479;29;20103;-81
2023/05/27 10:25:55;;;;;;;7.35;3.70;;;;;;;29.63;25.89;102006.81;4943205;29;20039;-85
2023/05/27 10:28:35;;;;;;;7.38;3.67;;;;;;;30.25;25.54;102000.72;4938445;29;20480;-81
2023/05/27 10:31:06;;;;;;;7.00;3.70;;;;;;;30.43;25.40;101997.66;4945836;29;20054;-82
2023/05/27 10:33:38;;;;;;;7.85;3.33;;;;;;;31.24;24.26;101989.94;4935210;29;20099;-86
2023/05/27 10:36:14;;;;;;;7.03;3.50;;;;;;;31.80;24.11;101989.31;4921718;29;20044;-83
2023/05/27 10:38:43;;;;;;;7.13;3.90;;;;;;;31.09;23.95;101997.41;4923997;29;20051;-82
2023/05/27 10:41:10;;;;;;;6.93;3.63;;;;;;;29.66;25.37;101999.38;4947893;29;20095;-85
2023/05/27 10:43:37;;;;;;;7.90;4.40;;;;;;;28.95;25.98;101990.63;4944107;29;20449;-86
2023/05/27 10:46:13;;;;;;;8.05;3.42;;;;;;;29.24;26.46;101990.50;4940587;29;20058;-85
2023/05/27 10:48:41;;;;;;;9.10;3.90;;;;;;;30.83;24.90;101981.25;4941067;29;20051;-87
2023/05/27 10:51:10;;;;;;;6.63;3.08;;;;;;;30.95;24.16;101977.63;4939064;29;20059;-82
2023/05/27 10:53:42;;;;;;;7.13;3.38;;;;;;;31.13;24.43;101974.53;4928530;29;20050;-90
2023/05/27 10:56:09;;;;;;;7.93;3.53;;;;;;;31.14;23.37;101970.88;4939731;29;20059;-84
2023/05/27 10:58:38;;;;;;;10.00;3.90;;;;;;;31.47;23.72;101964.72;4931917;29;20111;-85
2023/05/27 11:01:15;;;;;;;5.85;3.17;;;;;;;31.33;23.16;101964.94;4938127;29;20467;-84
2023/05/27 11:03:49;;;;;;;9.18;3.25;;;;;;;30.87;22.47;101968.38;4931042;29;20668;-83
2023/05/27 11:06:16;;;;;;;6.60;2.80;;;;;;;31.29;22.88;101958.00;4922063;29;20043;-88
2023/05/27 11:08:43;;;;;;;5.13;2.35;;;;;;;31.75;22.87;101957.16;4929273;29;20055;-82
2023/05/27 11:11:12;;;;;;;6.55;3.03;;;;;;;32.92;21.54;101948.69;4938397;29;20123;-83
2023/05/27 11:13:46;;;;;;;6.72;3.45;;;;;;;32.57;21.25;101947.94;4943357;29;20040;-85
2023/05/27 11:16:14;;;;;;;11.75;3.25;;;;;;;32.39;22.00;101957.59;4917628;29;20073;-88
2023/05/27 11:18:50;;;;;;;9.30;3.60;;;;;;;31.83;21.89;101943.03;4917843;29;20043;-82
2023/05/27 11:21:17;;;;;;;5.82;3.00;;;;;;;32.23;22.40;101934.44;4927565;29;20048;-83
2023/05/27 11:23:47;;;;;;;6.55;3.25;;;;;;;33.17;21.97;101930.34;4937776;29;20103;-81